sensor_id;sensor_type;location;lat;lon;timestamp;temperature;humidity
47618;DHT22;33336;36.728;-4.414;2022-10-16T00:00:45;23.00;70.00
47618;DHT22;33336;36.728;-4.414;2022-10-16T00:05:49;23.00;70.30
47618;DHT22;33336;36.728;-4.414;2022-10-16T00:10:58;23.00;70.30
47618;DHT22;33336;36.728;-4.414;2022-10-16T00:16:01;23.00;70.10
47618;DHT22;33336;36.728;-4.414;2022-10-16T00:21:06;22.90;70.10
47618;DHT22;33336;36.728;-4.414;2022-10-16T00:26:17;22.80;70.60
47618;DHT22;33336;36.728;-4.414;2022-10-16T00:31:21;22.80;70.60
47618;DHT22;33336;36.728;-4.414;2022-10-16T00:36:26;22.80;71.00
47618;DHT22;33336;36.728;-4.414;2022-10-16T00:41:31;22.70;70.80
47618;DHT22;33336;36.728;-4.414;2022-10-16T00:46:37;22.70;70.60
47618;DHT22;33336;36.728;-4.414;2022-10-16T00:51:42;22.70;70.20
47618;DHT22;33336;36.728;-4.414;2022-10-16T00:56:47;22.50;70.90
47618;DHT22;33336;36.728;-4.414;2022-10-16T01:01:50;22.50;69.80
47618;DHT22;33336;36.728;-4.414;2022-10-16T01:06:58;22.60;69.60
47618;DHT22;33336;36.728;-4.414;2022-10-16T01:12:12;22.60;68.20
47618;DHT22;33336;36.728;-4.414;2022-10-16T01:17:26;22.40;68.90
47618;DHT22;33336;36.728;-4.414;2022-10-16T01:22:37;22.50;68.90
47618;DHT22;33336;36.728;-4.414;2022-10-16T01:27:45;22.60;67.90
47618;DHT22;33336;36.728;-4.414;2022-10-16T01:32:51;22.30;68.30
47618;DHT22;33336;36.728;-4.414;2022-10-16T01:38:00;22.40;69.10
47618;DHT22;33336;36.728;-4.414;2022-10-16T01:43:10;22.50;68.70
47618;DHT22;33336;36.728;-4.414;2022-10-16T01:48:18;22.00;69.00
47618;DHT22;33336;36.728;-4.414;2022-10-16T01:53:22;22.10;68.90
47618;DHT22;33336;36.728;-4.414;2022-10-16T01:58:30;22.40;69.30
47618;DHT22;33336;36.728;-4.414;2022-10-16T02:03:37;22.20;69.10
47618;DHT22;33336;36.728;-4.414;2022-10-16T02:08:41;21.40;70.00
47618;DHT22;33336;36.728;-4.414;2022-10-16T02:13:49;21.90;69.70
47618;DHT22;33336;36.728;-4.414;2022-10-16T02:18:54;22.20;69.80
47618;DHT22;33336;36.728;-4.414;2022-10-16T02:24:00;22.30;69.40
47618;DHT22;33336;36.728;-4.414;2022-10-16T02:29:11;22.30;69.30
47618;DHT22;33336;36.728;-4.414;2022-10-16T02:34:16;22.40;69.30
47618;DHT22;33336;36.728;-4.414;2022-10-16T02:39:21;22.20;69.60
47618;DHT22;33336;36.728;-4.414;2022-10-16T02:44:25;22.30;69.30
47618;DHT22;33336;36.728;-4.414;2022-10-16T02:49:28;21.90;69.70
47618;DHT22;33336;36.728;-4.414;2022-10-16T02:54:31;21.50;70.60
47618;DHT22;33336;36.728;-4.414;2022-10-16T02:59:35;21.10;71.50
47618;DHT22;33336;36.728;-4.414;2022-10-16T03:04:39;21.70;70.70
47618;DHT22;33336;36.728;-4.414;2022-10-16T03:09:42;21.20;71.60
47618;DHT22;33336;36.728;-4.414;2022-10-16T03:14:47;21.50;71.20
47618;DHT22;33336;36.728;-4.414;2022-10-16T03:19:50;21.30;71.20
47618;DHT22;33336;36.728;-4.414;2022-10-16T03:24:53;21.30;71.60
47618;DHT22;33336;36.728;-4.414;2022-10-16T03:29:57;21.70;70.70
47618;DHT22;33336;36.728;-4.414;2022-10-16T03:35:01;21.70;71.00
47618;DHT22;33336;36.728;-4.414;2022-10-16T03:40:04;21.40;71.10
47618;DHT22;33336;36.728;-4.414;2022-10-16T03:45:10;21.30;72.10
47618;DHT22;33336;36.728;-4.414;2022-10-16T03:50:13;21.10;72.00
47618;DHT22;33336;36.728;-4.414;2022-10-16T03:55:16;21.50;71.20
47618;DHT22;33336;36.728;-4.414;2022-10-16T04:00:20;21.80;70.80
47618;DHT22;33336;36.728;-4.414;2022-10-16T04:05:24;21.80;71.00
47618;DHT22;33336;36.728;-4.414;2022-10-16T04:10:27;22.00;70.70
47618;DHT22;33336;36.728;-4.414;2022-10-16T04:15:31;21.80;70.60
47618;DHT22;33336;36.728;-4.414;2022-10-16T04:20:34;21.90;70.40
47618;DHT22;33336;36.728;-4.414;2022-10-16T04:25:38;21.60;70.90
47618;DHT22;33336;36.728;-4.414;2022-10-16T04:30:42;21.60;70.70
47618;DHT22;33336;36.728;-4.414;2022-10-16T04:35:45;21.40;71.50
47618;DHT22;33336;36.728;-4.414;2022-10-16T04:40:47;21.60;71.60
47618;DHT22;33336;36.728;-4.414;2022-10-16T04:45:52;21.40;71.40
47618;DHT22;33336;36.728;-4.414;2022-10-16T04:50:55;21.80;70.50
47618;DHT22;33336;36.728;-4.414;2022-10-16T04:55:58;21.50;70.00
47618;DHT22;33336;36.728;-4.414;2022-10-16T05:01:02;21.30;70.10
47618;DHT22;33336;36.728;-4.414;2022-10-16T05:06:06;21.20;70.60
47618;DHT22;33336;36.728;-4.414;2022-10-16T05:11:09;21.10;70.20
47618;DHT22;33336;36.728;-4.414;2022-10-16T05:16:13;21.10;70.00
47618;DHT22;33336;36.728;-4.414;2022-10-16T05:21:16;21.40;69.70
47618;DHT22;33336;36.728;-4.414;2022-10-16T05:26:20;22.00;69.20
47618;DHT22;33336;36.728;-4.414;2022-10-16T05:31:24;22.20;69.30
47618;DHT22;33336;36.728;-4.414;2022-10-16T05:36:28;22.00;70.00
47618;DHT22;33336;36.728;-4.414;2022-10-16T05:41:31;21.40;70.70
47618;DHT22;33336;36.728;-4.414;2022-10-16T05:46:36;22.00;70.40
47618;DHT22;33336;36.728;-4.414;2022-10-16T05:51:39;21.80;70.40
47618;DHT22;33336;36.728;-4.414;2022-10-16T05:56:43;21.10;69.70
47618;DHT22;33336;36.728;-4.414;2022-10-16T06:01:47;20.80;69.50
47618;DHT22;33336;36.728;-4.414;2022-10-16T06:06:51;21.50;68.70
47618;DHT22;33336;36.728;-4.414;2022-10-16T06:11:53;22.00;70.40
47618;DHT22;33336;36.728;-4.414;2022-10-16T06:16:58;22.00;70.50
47618;DHT22;33336;36.728;-4.414;2022-10-16T06:22:01;22.10;70.60
47618;DHT22;33336;36.728;-4.414;2022-10-16T06:27:06;22.10;70.20
47618;DHT22;33336;36.728;-4.414;2022-10-16T06:32:10;22.00;70.00
47618;DHT22;33336;36.728;-4.414;2022-10-16T06:37:14;22.00;70.10
47618;DHT22;33336;36.728;-4.414;2022-10-16T06:42:16;21.80;70.20
47618;DHT22;33336;36.728;-4.414;2022-10-16T06:47:21;20.90;70.00
47618;DHT22;33336;36.728;-4.414;2022-10-16T06:52:24;21.30;70.70
47618;DHT22;33336;36.728;-4.414;2022-10-16T06:57:28;21.70;70.90
47618;DHT22;33336;36.728;-4.414;2022-10-16T07:02:32;22.00;71.40
47618;DHT22;33336;36.728;-4.414;2022-10-16T07:07:35;22.10;70.90
47618;DHT22;33336;36.728;-4.414;2022-10-16T07:12:37;22.30;70.70
47618;DHT22;33336;36.728;-4.414;2022-10-16T07:17:42;22.40;70.60
47618;DHT22;33336;36.728;-4.414;2022-10-16T07:22:45;22.30;70.90
47618;DHT22;33336;36.728;-4.414;2022-10-16T07:27:48;22.10;71.60
47618;DHT22;33336;36.728;-4.414;2022-10-16T07:32:52;22.50;70.90
47618;DHT22;33336;36.728;-4.414;2022-10-16T07:37:56;22.60;70.50
47618;DHT22;33336;36.728;-4.414;2022-10-16T07:42:58;22.70;70.80
47618;DHT22;33336;36.728;-4.414;2022-10-16T07:48:05;22.80;70.40
47618;DHT22;33336;36.728;-4.414;2022-10-16T07:53:08;23.10;70.30
47618;DHT22;33336;36.728;-4.414;2022-10-16T07:58:12;22.90;70.80
47618;DHT22;33336;36.728;-4.414;2022-10-16T08:03:16;22.70;71.30
47618;DHT22;33336;36.728;-4.414;2022-10-16T08:08:19;21.40;76.10
47618;DHT22;33336;36.728;-4.414;2022-10-16T08:13:22;20.80;78.70
47618;DHT22;33336;36.728;-4.414;2022-10-16T08:18:26;21.10;74.20
47618;DHT22;33336;36.728;-4.414;2022-10-16T08:23:29;21.20;73.80
47618;DHT22;33336;36.728;-4.414;2022-10-16T08:28:33;21.90;72.50
47618;DHT22;33336;36.728;-4.414;2022-10-16T08:33:37;22.50;71.20
47618;DHT22;33336;36.728;-4.414;2022-10-16T08:38:41;22.60;71.00
47618;DHT22;33336;36.728;-4.414;2022-10-16T08:44:06;22.70;72.40
47618;DHT22;33336;36.728;-4.414;2022-10-16T08:49:12;22.50;77.30
47618;DHT22;33336;36.728;-4.414;2022-10-16T08:54:23;22.10;77.70
47618;DHT22;33336;36.728;-4.414;2022-10-16T08:59:29;22.30;76.40
47618;DHT22;33336;36.728;-4.414;2022-10-16T09:10:11;23.10;74.70
47618;DHT22;33336;36.728;-4.414;2022-10-16T09:15:24;23.00;74.40
47618;DHT22;33336;36.728;-4.414;2022-10-16T09:20:38;23.30;75.70
47618;DHT22;33336;36.728;-4.414;2022-10-16T09:25:45;23.50;74.00
47618;DHT22;33336;36.728;-4.414;2022-10-16T09:30:52;23.60;74.40
47618;DHT22;33336;36.728;-4.414;2022-10-16T09:35:59;23.70;74.20
47618;DHT22;33336;36.728;-4.414;2022-10-16T09:41:14;22.70;76.00
47618;DHT22;33336;36.728;-4.414;2022-10-16T09:46:35;23.30;74.70
47618;DHT22;33336;36.728;-4.414;2022-10-16T09:51:40;23.70;73.90
47618;DHT22;33336;36.728;-4.414;2022-10-16T09:56:43;23.70;74.20
47618;DHT22;33336;36.728;-4.414;2022-10-16T10:01:49;24.40;73.90
47618;DHT22;33336;36.728;-4.414;2022-10-16T10:06:55;25.50;72.50
47618;DHT22;33336;36.728;-4.414;2022-10-16T10:11:59;25.30;69.30
47618;DHT22;33336;36.728;-4.414;2022-10-16T10:17:14;25.00;70.80
47618;DHT22;33336;36.728;-4.414;2022-10-16T10:22:26;25.50;71.10
47618;DHT22;33336;36.728;-4.414;2022-10-16T10:27:37;24.80;72.10
47618;DHT22;33336;36.728;-4.414;2022-10-16T10:32:50;24.30;72.80
47618;DHT22;33336;36.728;-4.414;2022-10-16T10:38:06;24.60;71.50
47618;DHT22;33336;36.728;-4.414;2022-10-16T10:43:22;25.00;70.10
47618;DHT22;33336;36.728;-4.414;2022-10-16T10:48:54;25.00;69.80
47618;DHT22;33336;36.728;-4.414;2022-10-16T10:54:10;24.50;69.10
47618;DHT22;33336;36.728;-4.414;2022-10-16T10:59:24;24.80;68.20
47618;DHT22;33336;36.728;-4.414;2022-10-16T11:04:58;24.60;67.40
47618;DHT22;33336;36.728;-4.414;2022-10-16T11:10:14;24.60;68.10
47618;DHT22;33336;36.728;-4.414;2022-10-16T11:15:23;25.10;67.90
47618;DHT22;33336;36.728;-4.414;2022-10-16T11:20:29;24.90;67.60
47618;DHT22;33336;36.728;-4.414;2022-10-16T11:25:36;25.50;67.60
47618;DHT22;33336;36.728;-4.414;2022-10-16T11:30:46;25.80;70.60
47618;DHT22;33336;36.728;-4.414;2022-10-16T11:35:55;26.10;72.60
47618;DHT22;33336;36.728;-4.414;2022-10-16T11:41:08;26.60;68.90
47618;DHT22;33336;36.728;-4.414;2022-10-16T11:46:17;27.10;66.40
47618;DHT22;33336;36.728;-4.414;2022-10-16T11:51:26;25.50;82.90
47618;DHT22;33336;36.728;-4.414;2022-10-16T11:56:37;25.80;82.90
47618;DHT22;33336;36.728;-4.414;2022-10-16T12:01:43;26.20;81.00
47618;DHT22;33336;36.728;-4.414;2022-10-16T12:06:49;26.50;80.20
47618;DHT22;33336;36.728;-4.414;2022-10-16T12:11:55;27.10;76.60
47618;DHT22;33336;36.728;-4.414;2022-10-16T12:16:59;27.60;74.50
47618;DHT22;33336;36.728;-4.414;2022-10-16T12:22:03;28.80;74.20
47618;DHT22;33336;36.728;-4.414;2022-10-16T12:27:23;29.10;74.40
47618;DHT22;33336;36.728;-4.414;2022-10-16T12:32:32;29.50;73.50
47618;DHT22;33336;36.728;-4.414;2022-10-16T12:37:37;29.10;70.70
47618;DHT22;33336;36.728;-4.414;2022-10-16T12:42:41;29.20;70.90
47618;DHT22;33336;36.728;-4.414;2022-10-16T12:47:49;29.10;70.30
47618;DHT22;33336;36.728;-4.414;2022-10-16T12:52:52;29.70;70.40
47618;DHT22;33336;36.728;-4.414;2022-10-16T12:58:21;29.60;69.60
47618;DHT22;33336;36.728;-4.414;2022-10-16T13:04:03;29.80;69.80
47618;DHT22;33336;36.728;-4.414;2022-10-16T13:09:24;30.80;68.80
47618;DHT22;33336;36.728;-4.414;2022-10-16T13:14:58;29.80;68.20
47618;DHT22;33336;36.728;-4.414;2022-10-16T13:20:15;29.10;69.10
47618;DHT22;33336;36.728;-4.414;2022-10-16T13:25:27;29.40;67.90
47618;DHT22;33336;36.728;-4.414;2022-10-16T13:30:38;29.70;67.80
47618;DHT22;33336;36.728;-4.414;2022-10-16T13:35:49;30.00;68.10
47618;DHT22;33336;36.728;-4.414;2022-10-16T13:40:55;30.00;67.60
47618;DHT22;33336;36.728;-4.414;2022-10-16T13:46:01;31.00;67.70
47618;DHT22;33336;36.728;-4.414;2022-10-16T13:51:11;30.80;66.10
47618;DHT22;33336;36.728;-4.414;2022-10-16T13:56:16;31.30;65.70
47618;DHT22;33336;36.728;-4.414;2022-10-16T14:01:25;32.60;64.00
47618;DHT22;33336;36.728;-4.414;2022-10-16T14:06:29;33.30;62.80
47618;DHT22;33336;36.728;-4.414;2022-10-16T14:11:33;33.80;61.50
47618;DHT22;33336;36.728;-4.414;2022-10-16T14:16:41;34.50;60.20
47618;DHT22;33336;36.728;-4.414;2022-10-16T14:21:46;34.00;61.20
47618;DHT22;33336;36.728;-4.414;2022-10-16T14:26:48;32.00;63.80
47618;DHT22;33336;36.728;-4.414;2022-10-16T14:31:57;33.00;67.50
47618;DHT22;33336;36.728;-4.414;2022-10-16T14:37:06;33.80;67.60
47618;DHT22;33336;36.728;-4.414;2022-10-16T14:42:16;34.80;67.10
47618;DHT22;33336;36.728;-4.414;2022-10-16T14:47:23;35.40;65.80
47618;DHT22;33336;36.728;-4.414;2022-10-16T14:52:28;35.70;64.90
47618;DHT22;33336;36.728;-4.414;2022-10-16T14:57:33;35.40;64.30
47618;DHT22;33336;36.728;-4.414;2022-10-16T15:02:40;36.50;64.60
47618;DHT22;33336;36.728;-4.414;2022-10-16T15:07:44;36.80;63.40
47618;DHT22;33336;36.728;-4.414;2022-10-16T15:12:48;37.00;63.50
47618;DHT22;33336;36.728;-4.414;2022-10-16T15:17:53;36.80;63.70
47618;DHT22;33336;36.728;-4.414;2022-10-16T15:22:59;36.70;63.20
47618;DHT22;33336;36.728;-4.414;2022-10-16T15:28:03;35.00;66.40
47618;DHT22;33336;36.728;-4.414;2022-10-16T15:33:14;33.20;70.50
47618;DHT22;33336;36.728;-4.414;2022-10-16T15:38:18;33.00;71.50
47618;DHT22;33336;36.728;-4.414;2022-10-16T15:43:26;33.20;71.70
47618;DHT22;33336;36.728;-4.414;2022-10-16T15:48:30;32.90;73.10
47618;DHT22;33336;36.728;-4.414;2022-10-16T15:53:35;31.70;75.00
47618;DHT22;33336;36.728;-4.414;2022-10-16T15:58:38;31.90;76.80
47618;DHT22;33336;36.728;-4.414;2022-10-16T16:03:43;29.60;81.20
47618;DHT22;33336;36.728;-4.414;2022-10-16T16:08:46;29.00;80.50
47618;DHT22;33336;36.728;-4.414;2022-10-16T16:13:49;28.70;85.00
47618;DHT22;33336;36.728;-4.414;2022-10-16T16:18:54;29.70;82.20
47618;DHT22;33336;36.728;-4.414;2022-10-16T16:23:57;29.20;79.70
47618;DHT22;33336;36.728;-4.414;2022-10-16T16:29:00;29.50;78.10
47618;DHT22;33336;36.728;-4.414;2022-10-16T16:34:05;28.50;77.70
47618;DHT22;33336;36.728;-4.414;2022-10-16T16:39:08;28.10;78.90
47618;DHT22;33336;36.728;-4.414;2022-10-16T16:44:14;26.70;82.40
47618;DHT22;33336;36.728;-4.414;2022-10-16T16:49:18;26.60;81.70
47618;DHT22;33336;36.728;-4.414;2022-10-16T16:54:21;26.40;82.70
47618;DHT22;33336;36.728;-4.414;2022-10-16T16:59:24;26.10;82.60
47618;DHT22;33336;36.728;-4.414;2022-10-16T17:04:29;25.80;84.60
47618;DHT22;33336;36.728;-4.414;2022-10-16T17:09:32;26.20;85.40
47618;DHT22;33336;36.728;-4.414;2022-10-16T17:14:35;26.20;88.70
47618;DHT22;33336;36.728;-4.414;2022-10-16T17:19:39;26.20;89.60
47618;DHT22;33336;36.728;-4.414;2022-10-16T17:24:42;26.80;87.80
47618;DHT22;33336;36.728;-4.414;2022-10-16T17:29:49;26.80;87.70
47618;DHT22;33336;36.728;-4.414;2022-10-16T17:34:54;25.80;90.10
47618;DHT22;33336;36.728;-4.414;2022-10-16T17:39:57;26.40;89.90
47618;DHT22;33336;36.728;-4.414;2022-10-16T17:45:00;26.70;89.20
47618;DHT22;33336;36.728;-4.414;2022-10-16T17:50:05;26.60;90.00
47618;DHT22;33336;36.728;-4.414;2022-10-16T17:55:08;27.00;88.40
47618;DHT22;33336;36.728;-4.414;2022-10-16T18:00:12;27.10;86.80
47618;DHT22;33336;36.728;-4.414;2022-10-16T18:05:17;27.10;86.60
47618;DHT22;33336;36.728;-4.414;2022-10-16T18:10:20;27.20;86.80
47618;DHT22;33336;36.728;-4.414;2022-10-16T18:15:23;27.10;86.60
47618;DHT22;33336;36.728;-4.414;2022-10-16T18:20:28;27.00;87.60
47618;DHT22;33336;36.728;-4.414;2022-10-16T18:25:31;27.00;86.90
47618;DHT22;33336;36.728;-4.414;2022-10-16T18:30:34;26.90;86.40
47618;DHT22;33336;36.728;-4.414;2022-10-16T18:35:39;26.10;87.20
47618;DHT22;33336;36.728;-4.414;2022-10-16T18:40:41;26.40;85.60
47618;DHT22;33336;36.728;-4.414;2022-10-16T18:45:54;26.50;83.40
47618;DHT22;33336;36.728;-4.414;2022-10-16T18:51:08;26.10;83.00
47618;DHT22;33336;36.728;-4.414;2022-10-16T18:56:12;26.30;83.00
47618;DHT22;33336;36.728;-4.414;2022-10-16T19:01:20;26.70;82.00
47618;DHT22;33336;36.728;-4.414;2022-10-16T19:06:26;25.60;83.20
47618;DHT22;33336;36.728;-4.414;2022-10-16T19:11:29;24.70;86.50
47618;DHT22;33336;36.728;-4.414;2022-10-16T19:16:34;24.50;87.40
47618;DHT22;33336;36.728;-4.414;2022-10-16T19:21:39;25.50;84.90
47618;DHT22;33336;36.728;-4.414;2022-10-16T19:26:43;25.00;84.50
47618;DHT22;33336;36.728;-4.414;2022-10-16T19:31:46;24.70;84.90
47618;DHT22;33336;36.728;-4.414;2022-10-16T19:36:54;25.60;84.40
47618;DHT22;33336;36.728;-4.414;2022-10-16T19:41:56;25.60;85.50
47618;DHT22;33336;36.728;-4.414;2022-10-16T19:46:59;26.20;85.00
47618;DHT22;33336;36.728;-4.414;2022-10-16T19:52:04;26.20;84.30
47618;DHT22;33336;36.728;-4.414;2022-10-16T19:57:07;26.20;83.50
47618;DHT22;33336;36.728;-4.414;2022-10-16T20:02:11;26.30;81.90
47618;DHT22;33336;36.728;-4.414;2022-10-16T20:07:16;26.30;80.70
47618;DHT22;33336;36.728;-4.414;2022-10-16T20:12:19;26.40;81.40
47618;DHT22;33336;36.728;-4.414;2022-10-16T20:17:22;26.10;80.70
47618;DHT22;33336;36.728;-4.414;2022-10-16T20:22:27;25.00;81.30
47618;DHT22;33336;36.728;-4.414;2022-10-16T20:27:30;24.50;83.10
47618;DHT22;33336;36.728;-4.414;2022-10-16T20:32:33;25.00;83.70
47618;DHT22;33336;36.728;-4.414;2022-10-16T20:37:38;25.40;84.10
47618;DHT22;33336;36.728;-4.414;2022-10-16T20:42:40;25.70;84.30
47618;DHT22;33336;36.728;-4.414;2022-10-16T20:47:43;26.10;86.00
47618;DHT22;33336;36.728;-4.414;2022-10-16T20:52:48;26.20;85.20
47618;DHT22;33336;36.728;-4.414;2022-10-16T20:57:50;26.30;85.40
47618;DHT22;33336;36.728;-4.414;2022-10-16T21:02:53;26.10;85.30
47618;DHT22;33336;36.728;-4.414;2022-10-16T21:07:59;26.20;83.60
47618;DHT22;33336;36.728;-4.414;2022-10-16T21:13:02;25.80;83.70
47618;DHT22;33336;36.728;-4.414;2022-10-16T21:18:05;25.70;83.70
47618;DHT22;33336;36.728;-4.414;2022-10-16T21:23:10;25.50;82.50
47618;DHT22;33336;36.728;-4.414;2022-10-16T21:28:13;25.00;81.50
47618;DHT22;33336;36.728;-4.414;2022-10-16T21:33:16;25.60;81.20
47618;DHT22;33336;36.728;-4.414;2022-10-16T21:38:21;25.80;81.60
47618;DHT22;33336;36.728;-4.414;2022-10-16T21:43:24;26.00;82.10
47618;DHT22;33336;36.728;-4.414;2022-10-16T21:48:27;26.00;82.20
47618;DHT22;33336;36.728;-4.414;2022-10-16T21:53:31;26.00;82.30
47618;DHT22;33336;36.728;-4.414;2022-10-16T21:58:34;26.10;82.10
47618;DHT22;33336;36.728;-4.414;2022-10-16T22:03:37;26.00;82.70
47618;DHT22;33336;36.728;-4.414;2022-10-16T22:08:42;25.90;82.00
47618;DHT22;33336;36.728;-4.414;2022-10-16T22:13:44;24.70;84.40
47618;DHT22;33336;36.728;-4.414;2022-10-16T22:18:50;23.90;87.90
47618;DHT22;33336;36.728;-4.414;2022-10-16T22:23:54;24.70;88.30
47618;DHT22;33336;36.728;-4.414;2022-10-16T22:28:57;24.90;88.70
47618;DHT22;33336;36.728;-4.414;2022-10-16T22:34:02;25.30;88.80
47618;DHT22;33336;36.728;-4.414;2022-10-16T22:39:07;24.50;81.70
47618;DHT22;33336;36.728;-4.414;2022-10-16T22:44:12;24.30;81.70
47618;DHT22;33336;36.728;-4.414;2022-10-16T22:49:16;24.00;85.60
47618;DHT22;33336;36.728;-4.414;2022-10-16T22:54:21;24.10;86.90
47618;DHT22;33336;36.728;-4.414;2022-10-16T22:59:25;23.80;89.90
47618;DHT22;33336;36.728;-4.414;2022-10-16T23:04:28;24.50;88.50
47618;DHT22;33336;36.728;-4.414;2022-10-16T23:09:35;24.80;88.10
47618;DHT22;33336;36.728;-4.414;2022-10-16T23:14:38;25.20;87.80
47618;DHT22;33336;36.728;-4.414;2022-10-16T23:19:42;24.70;89.30
47618;DHT22;33336;36.728;-4.414;2022-10-16T23:24:46;25.10;88.60
47618;DHT22;33336;36.728;-4.414;2022-10-16T23:29:50;24.90;88.30
47618;DHT22;33336;36.728;-4.414;2022-10-16T23:34:53;25.20;87.20
47618;DHT22;33336;36.728;-4.414;2022-10-16T23:39:58;25.00;87.60
47618;DHT22;33336;36.728;-4.414;2022-10-16T23:45:01;25.00;87.40
47618;DHT22;33336;36.728;-4.414;2022-10-16T23:50:06;25.10;87.40
47618;DHT22;33336;36.728;-4.414;2022-10-16T23:55:11;24.70;88.10
